Weather History for Rantoul, IL

Change the Weather History Date:

Friday, August 29, 2014

  Actual Average (KCMI) Record (KCMI)
Temperature  
Mean Temperature 78 °F 71 °F  
Max Temperature 87 °F 83 °F 95 °F (2007)
Min Temperature 70 °F 59 °F 55 °F (2004)
Degree Days  
Heating Degree Days 0 0  
Month to date heating degree days 0  
Since 1 June heating degree days 19  
Since 1 July heating degree days 2  
Cooling Degree Days 13 6  
Month to date cooling degree days 218  
Year to date cooling degree days 815  
Since 1 June cooling degree days 723  
Growing Degree Days 28 (Base 50)    
Moisture  
Dew Point 70 °F    
Average Humidity 79    
Maximum Humidity 89    
Minimum Humidity 58    
Precipitation  
Precipitation 0.00 in 0.13 in 1.64 in (1951)
Month to date precipitation 3.33  
Year to date precipitation 27.00  
Sea Level Pressure  
Sea Level Pressure 29.97 in    
Wind  
Wind Speed 6 mph (SSE)    
Max Wind Speed 12 mph    
Max Gust Speed 18 mph    
Visibility 8 miles    
Events Rain , Thunderstorm    
T = Trace of Precipitation, MM = Missing Value Source: NWS Daily Summary

Daily Weather History Graph

Daily Weather History Graph

Search for Another Location

Airport:

Trip Planner

Search our weather history database for the weather conditions in past years. The results will help you decide how hot, cold, wet, or windy it might be!

Date:

Astronomy

Aug. 29, 2014 Rise Set
Actual Time 6:17 AM CDT 7:29 PM CDT
Civil Twilight 5:49 AM CDT 7:57 PM CDT
Nautical Twilight 5:15 AM CDT 8:30 PM CDT
Astronomical Twilight 4:40 AM CDT 9:05 PM CDT
Moon 10:06 AM CDT (8/29) 9:25 PM CDT (8/29)
Length of Visible Light 14h 07m
Length of Day
13h 11m
Waxing Crescent, 15% of the Moon is Illuminated
Aug 29
Waxing Crescent
Sep 2
First Quarter
Sep 8
Full
Sep 15
Last Quarter
Sep 24
New

Hourly Weather History & Observations

Time (CDT) Temp. Heat Index Dew Point Humidity Pressure Visibility Wind Dir Wind Speed Gust Speed Precip Events Conditions
12:10 AM 74.1 °F - 69.1 °F 84% 30.05 in 10.0 mi ENE 4.6 mph - N/A Rain Light Rain
12:30 AM 73.4 °F - 69.1 °F 86% 30.03 in 10.0 mi East 6.9 mph - N/A   Light Drizzle
12:50 AM 72.7 °F - 68.9 °F 88% 30.03 in 7.0 mi East 5.8 mph - N/A   Clear
1:10 AM 72.9 °F - 68.9 °F 87% 30.02 in 10.0 mi East 3.5 mph - N/A   Clear
1:30 AM 72.9 °F - 68.9 °F 87% 30.02 in 10.0 mi Calm Calm - N/A   Clear
1:50 AM 73.0 °F - 68.9 °F 87% 30.01 in 10.0 mi ESE 3.5 mph - N/A   Clear
2:10 AM 72.3 °F - 68.4 °F 87% 30.00 in 7.0 mi ESE 5.8 mph - N/A   Clear
2:30 AM 72.0 °F - 68.4 °F 88% 30.00 in 7.0 mi ESE 4.6 mph - N/A   Clear
2:50 AM 72.1 °F - 68.0 °F 87% 30.00 in 10.0 mi ESE 3.5 mph - N/A   Clear
3:30 AM 72.3 °F - 68.0 °F 86% 29.99 in 10.0 mi SE 6.9 mph - N/A   Clear
3:50 AM 72.5 °F - 68.0 °F 86% 29.99 in 10.0 mi SE 6.9 mph - N/A   Clear
4:10 AM 72.5 °F - 68.0 °F 86% 29.99 in 10.0 mi SE 6.9 mph - N/A   Clear
4:30 AM 72.7 °F - 67.6 °F 84% 29.99 in 10.0 mi SE 8.1 mph - N/A   Clear
4:50 AM 72.5 °F - 67.5 °F 84% 29.99 in 10.0 mi SSE 5.8 mph - N/A   Clear
5:10 AM 72.1 °F - 67.5 °F 85% 29.99 in 10.0 mi SSE 6.9 mph - N/A   Clear
5:30 AM 71.6 °F - 67.3 °F 86% 29.99 in 10.0 mi SE 5.8 mph - N/A   Clear
5:50 AM 71.2 °F - 67.5 °F 88% 29.99 in 7.0 mi SE 4.6 mph - N/A   Clear
6:10 AM 70.9 °F - 67.1 °F 88% 30.00 in 7.0 mi SE 3.5 mph - N/A   Clear
6:30 AM 70.7 °F - 67.3 °F 89% 30.01 in 5.0 mi SE 3.5 mph - N/A   Clear
6:50 AM 71.1 °F - 67.5 °F 88% 30.01 in 5.0 mi SE 3.5 mph - N/A   Clear
7:10 AM 71.6 °F - 67.8 °F 88% 30.01 in 5.0 mi SE 3.5 mph - N/A   Clear
7:30 AM 72.3 °F - 68.4 °F 87% 30.02 in 5.0 mi SSE 3.5 mph - N/A   Clear
7:50 AM 73.4 °F - 68.9 °F 86% 30.02 in 7.0 mi SSE 4.6 mph - N/A   Clear
8:10 AM 74.7 °F - 69.4 °F 84% 30.01 in 7.0 mi SSE 6.9 mph - N/A   Clear
8:30 AM 75.4 °F - 69.4 °F 82% 30.01 in 7.0 mi SSE 6.9 mph - N/A   Clear
8:50 AM 75.7 °F - 69.8 °F 82% 30.01 in 7.0 mi South 6.9 mph - N/A   Clear
9:10 AM 76.1 °F - 70.0 °F 81% 30.02 in 7.0 mi South 9.2 mph - N/A   Clear
9:30 AM 76.3 °F - 70.3 °F 82% 30.02 in 7.0 mi South 10.4 mph - N/A   Clear
9:50 AM 76.5 °F - 70.3 °F 81% 30.03 in 7.0 mi South 9.2 mph - N/A   Clear
10:10 AM 76.1 °F - 70.3 °F 82% 30.03 in 7.0 mi South 8.1 mph - N/A   Clear
10:30 AM 76.5 °F - 71.1 °F 83% 30.03 in 7.0 mi South 6.9 mph - N/A   Clear
10:50 AM 77.9 °F - 71.4 °F 80% 30.02 in 7.0 mi South 9.2 mph - N/A   Clear
11:10 AM 78.1 °F - 71.6 °F 80% 30.02 in 7.0 mi SSE 8.1 mph - N/A   Clear
11:30 AM 78.3 °F - 72.0 °F 81% 30.01 in 7.0 mi SSE 6.9 mph - N/A   Clear
11:50 AM 79.5 °F - 72.3 °F 79% 30.01 in 7.0 mi SSE 6.9 mph - N/A   Clear
12:10 PM 82.2 °F 87.3 °F 72.3 °F 72% 30.00 in 10.0 mi South 5.8 mph - N/A   Clear
12:30 PM 82.9 °F 88.5 °F 72.7 °F 71% 29.99 in 10.0 mi South 4.6 mph - N/A   Clear
12:50 PM 84.2 °F 89.9 °F 72.1 °F 67% 29.98 in 7.0 mi South 5.8 mph - N/A   Clear
1:10 PM 83.5 °F 89.4 °F 72.7 °F 70% 29.98 in 10.0 mi SSE 6.9 mph - N/A   Clear
1:30 PM 82.2 °F 87.6 °F 72.7 °F 73% 29.97 in 7.0 mi SSE 4.6 mph - N/A   Scattered Clouds
1:50 PM 81.7 °F 86.9 °F 73.0 °F 75% 29.97 in 7.0 mi South 6.9 mph - N/A Thunderstorm Scattered Clouds
2:10 PM 81.9 °F 86.0 °F 70.9 °F 69% 29.97 in 7.0 mi SE 9.2 mph 18.4 mph N/A Thunderstorm Scattered Clouds
2:30 PM 80.8 °F 84.2 °F 70.0 °F 70% 29.94 in 10.0 mi SE 8.1 mph - N/A Thunderstorm Clear
2:50 PM 83.5 °F 87.7 °F 70.3 °F 64% 29.95 in 10.0 mi SSE 5.8 mph - N/A Thunderstorm Clear
3:10 PM 85.3 °F 90.4 °F 70.9 °F 62% 29.94 in 10.0 mi SSE 9.2 mph - N/A   Clear
3:30 PM 85.5 °F 89.8 °F 69.6 °F 59% 29.92 in 10.0 mi SE 6.9 mph - N/A   Clear
3:50 PM 85.8 °F 92.2 °F 72.3 °F 64% 29.91 in 10.0 mi SE 9.2 mph - N/A   Clear
4:10 PM 86.4 °F 93.8 °F 73.2 °F 65% 29.90 in 10.0 mi SSE 11.5 mph - N/A   Clear
4:30 PM 86.9 °F 94.5 °F 73.6 °F 64% 29.91 in 10.0 mi SSE 8.1 mph - N/A   Clear
4:50 PM 86.9 °F 95.0 °F 73.8 °F 65% 29.91 in 10.0 mi SSE 6.9 mph - N/A   Clear
5:10 PM 86.4 °F 93.8 °F 73.2 °F 65% 29.91 in 10.0 mi South 5.8 mph - N/A Thunderstorm Clear
5:30 PM 86.2 °F 90.7 °F 69.6 °F 58% 29.90 in 10.0 mi South 9.2 mph - N/A Thunderstorm Clear
6:10 PM 85.3 °F 90.4 °F 70.7 °F 62% 29.91 in 10.0 mi South 6.9 mph - N/A   Clear
6:30 PM 84.2 °F 89.9 °F 72.0 °F 67% 29.91 in 10.0 mi SSE 11.5 mph - N/A   Clear
6:50 PM 80.6 °F 83.9 °F 69.8 °F 70% 29.91 in 10.0 mi SSE 8.1 mph - N/A   Clear
7:10 PM 79.7 °F - 69.8 °F 72% 29.91 in 10.0 mi SE 8.1 mph - N/A   Clear
7:30 PM 78.1 °F - 70.0 °F 76% 29.92 in 10.0 mi SSE 6.9 mph - N/A   Clear
7:50 PM 77.5 °F - 70.2 °F 78% 29.92 in 10.0 mi SSE 6.9 mph - N/A   Clear
8:10 PM 77.0 °F - 70.3 °F 80% 29.92 in 10.0 mi SSE 6.9 mph - N/A   Clear
8:30 PM 76.3 °F - 70.0 °F 81% 29.92 in 10.0 mi SSE 9.2 mph - N/A   Clear
8:50 PM 76.1 °F - 69.1 °F 79% 29.93 in 10.0 mi SSE 6.9 mph - N/A   Clear
9:10 PM 75.2 °F - 68.5 °F 80% 29.93 in 10.0 mi SSE 5.8 mph - N/A   Clear
9:30 PM 74.1 °F - 68.0 °F 81% 29.93 in 10.0 mi SSE 4.6 mph - N/A   Clear
9:50 PM 73.4 °F - 68.0 °F 83% 29.94 in 10.0 mi Calm Calm - N/A   Clear
10:10 PM 72.3 °F - 68.0 °F 86% 29.93 in 7.0 mi SE 4.6 mph - N/A   Clear
10:30 PM 72.0 °F - 67.8 °F 87% 29.94 in 7.0 mi SSE 3.5 mph - N/A   Clear
10:50 PM 71.8 °F - 68.0 °F 88% 29.94 in 7.0 mi SSE 3.5 mph - N/A   Clear
11:10 PM 71.8 °F - 68.0 °F 88% 29.94 in 7.0 mi SE 4.6 mph - N/A   Clear
11:30 PM 72.1 °F - 68.5 °F 88% 29.94 in 7.0 mi SSE 4.6 mph - N/A   Scattered Clouds
11:50 PM 72.9 °F - 68.9 °F 87% 29.93 in 7.0 mi SSE 4.6 mph - N/A   Clear